sensor_id;sensor_type;location;lat;lon;timestamp;P1;durP1;ratioP1;P2;durP2;ratioP2
26034;SDS011;13809;48.632;11.576;2022-07-19T00:00:39;3.20;;;1.67;;
26034;SDS011;13809;48.632;11.576;2022-07-19T00:05:49;2.27;;;1.80;;
26034;SDS011;13809;48.632;11.576;2022-07-19T00:10:52;1.87;;;1.77;;
26034;SDS011;13809;48.632;11.576;2022-07-19T00:15:57;1.77;;;1.67;;
26034;SDS011;13809;48.632;11.576;2022-07-19T00:21:02;3.20;;;1.77;;
26034;SDS011;13809;48.632;11.576;2022-07-19T00:26:05;1.77;;;1.60;;
26034;SDS011;13809;48.632;11.576;2022-07-19T00:31:09;2.23;;;2.00;;
26034;SDS011;13809;48.632;11.576;2022-07-19T00:36:14;4.63;;;1.90;;
26034;SDS011;13809;48.632;11.576;2022-07-19T00:41:17;2.37;;;2.07;;
26034;SDS011;13809;48.632;11.576;2022-07-19T00:46:21;2.00;;;1.90;;
26034;SDS011;13809;48.632;11.576;2022-07-19T00:51:26;2.10;;;1.90;;
26034;SDS011;13809;48.632;11.576;2022-07-19T00:56:30;2.80;;;2.10;;
26034;SDS011;13809;48.632;11.576;2022-07-19T01:01:35;2.53;;;1.40;;
26034;SDS011;13809;48.632;11.576;2022-07-19T01:06:41;1.70;;;1.60;;
26034;SDS011;13809;48.632;11.576;2022-07-19T01:11:45;3.17;;;1.60;;
26034;SDS011;13809;48.632;11.576;2022-07-19T01:16:48;1.70;;;1.60;;
26034;SDS011;13809;48.632;11.576;2022-07-19T01:21:53;4.80;;;1.77;;
26034;SDS011;13809;48.632;11.576;2022-07-19T01:26:57;3.23;;;2.30;;
26034;SDS011;13809;48.632;11.576;2022-07-19T01:32:00;1.83;;;1.73;;
26034;SDS011;13809;48.632;11.576;2022-07-19T01:37:05;2.40;;;2.00;;
26034;SDS011;13809;48.632;11.576;2022-07-19T01:42:08;2.03;;;1.93;;
26034;SDS011;13809;48.632;11.576;2022-07-19T01:47:11;2.13;;;2.03;;
26034;SDS011;13809;48.632;11.576;2022-07-19T01:52:16;2.30;;;2.10;;
26034;SDS011;13809;48.632;11.576;2022-07-19T01:57:20;1.90;;;1.80;;
26034;SDS011;13809;48.632;11.576;2022-07-19T02:02:23;2.47;;;1.97;;
26034;SDS011;13809;48.632;11.576;2022-07-19T02:07:28;1.90;;;1.80;;
26034;SDS011;13809;48.632;11.576;2022-07-19T02:12:31;2.27;;;1.83;;
26034;SDS011;13809;48.632;11.576;2022-07-19T02:17:34;2.20;;;1.93;;
26034;SDS011;13809;48.632;11.576;2022-07-19T02:22:39;2.50;;;2.03;;
26034;SDS011;13809;48.632;11.576;2022-07-19T02:27:43;2.20;;;2.00;;
26034;SDS011;13809;48.632;11.576;2022-07-19T02:32:46;1.90;;;1.70;;
26034;SDS011;13809;48.632;11.576;2022-07-19T02:37:50;1.77;;;1.67;;
26034;SDS011;13809;48.632;11.576;2022-07-19T02:42:54;2.07;;;1.93;;
26034;SDS011;13809;48.632;11.576;2022-07-19T02:47:57;3.03;;;2.17;;
26034;SDS011;13809;48.632;11.576;2022-07-19T02:53:03;3.30;;;2.10;;
26034;SDS011;13809;48.632;11.576;2022-07-19T02:58:06;1.83;;;1.73;;
26034;SDS011;13809;48.632;11.576;2022-07-19T03:03:09;3.40;;;1.80;;
26034;SDS011;13809;48.632;11.576;2022-07-19T03:08:31;2.30;;;2.10;;
26034;SDS011;13809;48.632;11.576;2022-07-19T03:13:35;2.00;;;1.90;;
26034;SDS011;13809;48.632;11.576;2022-07-19T03:18:38;2.10;;;1.97;;
26034;SDS011;13809;48.632;11.576;2022-07-19T03:23:43;2.30;;;2.10;;
26034;SDS011;13809;48.632;11.576;2022-07-19T03:28:46;2.30;;;2.10;;
26034;SDS011;13809;48.632;11.576;2022-07-19T03:33:49;2.20;;;1.90;;
26034;SDS011;13809;48.632;11.576;2022-07-19T03:38:54;3.77;;;2.20;;
26034;SDS011;13809;48.632;11.576;2022-07-19T03:43:57;4.73;;;2.30;;
26034;SDS011;13809;48.632;11.576;2022-07-19T03:49:01;5.50;;;2.00;;
26034;SDS011;13809;48.632;11.576;2022-07-19T03:54:05;2.17;;;1.80;;
26034;SDS011;13809;48.632;11.576;2022-07-19T03:59:09;2.30;;;2.10;;
26034;SDS011;13809;48.632;11.576;2022-07-19T04:04:12;1.97;;;1.80;;
26034;SDS011;13809;48.632;11.576;2022-07-19T04:09:16;3.13;;;1.80;;
26034;SDS011;13809;48.632;11.576;2022-07-19T04:14:20;5.87;;;1.87;;
26034;SDS011;13809;48.632;11.576;2022-07-19T04:19:23;2.13;;;1.90;;
26034;SDS011;13809;48.632;11.576;2022-07-19T04:24:27;4.13;;;1.80;;
26034;SDS011;13809;48.632;11.576;2022-07-19T04:29:31;2.50;;;2.30;;
26034;SDS011;13809;48.632;11.576;2022-07-19T04:34:34;2.50;;;2.30;;
26034;SDS011;13809;48.632;11.576;2022-07-19T04:39:38;2.30;;;2.10;;
26034;SDS011;13809;48.632;11.576;2022-07-19T04:44:42;2.63;;;2.43;;
26034;SDS011;13809;48.632;11.576;2022-07-19T04:49:45;2.23;;;2.03;;
26034;SDS011;13809;48.632;11.576;2022-07-19T04:54:50;2.73;;;2.50;;
26034;SDS011;13809;48.632;11.576;2022-07-19T04:59:53;3.33;;;2.13;;
26034;SDS011;13809;48.632;11.576;2022-07-19T05:04:56;2.90;;;2.60;;
26034;SDS011;13809;48.632;11.576;2022-07-19T05:10:01;2.67;;;2.17;;
26034;SDS011;13809;48.632;11.576;2022-07-19T05:15:05;2.70;;;2.50;;
26034;SDS011;13809;48.632;11.576;2022-07-19T05:20:16;3.43;;;2.40;;
26034;SDS011;13809;48.632;11.576;2022-07-19T05:25:20;3.00;;;2.70;;
26034;SDS011;13809;48.632;11.576;2022-07-19T05:30:27;3.43;;;3.10;;
26034;SDS011;13809;48.632;11.576;2022-07-19T05:35:30;4.40;;;2.50;;
26034;SDS011;13809;48.632;11.576;2022-07-19T05:40:35;3.37;;;3.07;;
26034;SDS011;13809;48.632;11.576;2022-07-19T05:45:38;5.27;;;2.67;;
26034;SDS011;13809;48.632;11.576;2022-07-19T05:50:42;2.60;;;2.40;;
26034;SDS011;13809;48.632;11.576;2022-07-19T05:55:46;4.83;;;2.40;;
26034;SDS011;13809;48.632;11.576;2022-07-19T06:00:50;2.47;;;2.20;;
26034;SDS011;13809;48.632;11.576;2022-07-19T06:06:10;2.70;;;2.50;;
26034;SDS011;13809;48.632;11.576;2022-07-19T06:11:16;2.80;;;1.97;;
26034;SDS011;13809;48.632;11.576;2022-07-19T06:16:20;4.07;;;2.20;;
26034;SDS011;13809;48.632;11.576;2022-07-19T06:21:24;2.43;;;2.20;;
26034;SDS011;13809;48.632;11.576;2022-07-19T06:26:28;3.47;;;2.40;;
26034;SDS011;13809;48.632;11.576;2022-07-19T06:31:31;3.00;;;2.50;;
26034;SDS011;13809;48.632;11.576;2022-07-19T06:36:35;2.47;;;2.27;;
26034;SDS011;13809;48.632;11.576;2022-07-19T06:41:41;2.60;;;2.40;;
26034;SDS011;13809;48.632;11.576;2022-07-19T06:46:44;2.47;;;2.20;;
26034;SDS011;13809;48.632;11.576;2022-07-19T06:51:55;2.43;;;2.10;;
26034;SDS011;13809;48.632;11.576;2022-07-19T06:56:59;5.83;;;2.37;;
26034;SDS011;13809;48.632;11.576;2022-07-19T07:02:03;3.47;;;2.07;;
26034;SDS011;13809;48.632;11.576;2022-07-19T07:07:06;5.57;;;1.77;;
26034;SDS011;13809;48.632;11.576;2022-07-19T07:12:11;4.60;;;2.10;;
26034;SDS011;13809;48.632;11.576;2022-07-19T07:17:14;3.03;;;1.80;;
26034;SDS011;13809;48.632;11.576;2022-07-19T07:22:17;2.43;;;1.90;;
26034;SDS011;13809;48.632;11.576;2022-07-19T07:27:22;1.87;;;1.60;;
26034;SDS011;13809;48.632;11.576;2022-07-19T07:32:25;1.90;;;1.80;;
26034;SDS011;13809;48.632;11.576;2022-07-19T07:37:29;1.97;;;1.80;;
26034;SDS011;13809;48.632;11.576;2022-07-19T07:42:33;1.70;;;1.60;;
26034;SDS011;13809;48.632;11.576;2022-07-19T07:47:37;4.43;;;1.87;;
26034;SDS011;13809;48.632;11.576;2022-07-19T07:52:40;1.50;;;1.40;;
26034;SDS011;13809;48.632;11.576;2022-07-19T07:57:44;1.40;;;1.30;;
26034;SDS011;13809;48.632;11.576;2022-07-19T08:02:48;1.93;;;1.43;;
26034;SDS011;13809;48.632;11.576;2022-07-19T08:07:51;1.60;;;1.50;;
26034;SDS011;13809;48.632;11.576;2022-07-19T08:12:56;2.20;;;1.40;;
26034;SDS011;13809;48.632;11.576;2022-07-19T08:18:07;1.60;;;1.50;;
26034;SDS011;13809;48.632;11.576;2022-07-19T08:23:10;1.60;;;1.50;;
26034;SDS011;13809;48.632;11.576;2022-07-19T08:28:15;1.50;;;1.40;;
26034;SDS011;13809;48.632;11.576;2022-07-19T08:33:18;1.50;;;1.40;;
26034;SDS011;13809;48.632;11.576;2022-07-19T08:38:21;2.03;;;1.63;;
26034;SDS011;13809;48.632;11.576;2022-07-19T08:43:30;1.70;;;1.60;;
26034;SDS011;13809;48.632;11.576;2022-07-19T08:48:33;2.20;;;1.50;;
26034;SDS011;13809;48.632;11.576;2022-07-19T08:53:46;1.70;;;1.60;;
26034;SDS011;13809;48.632;11.576;2022-07-19T08:58:52;2.90;;;1.70;;
26034;SDS011;13809;48.632;11.576;2022-07-19T09:04:02;1.63;;;1.53;;
26034;SDS011;13809;48.632;11.576;2022-07-19T09:09:07;1.67;;;1.57;;
26034;SDS011;13809;48.632;11.576;2022-07-19T09:14:12;1.80;;;1.70;;
26034;SDS011;13809;48.632;11.576;2022-07-19T09:19:15;1.80;;;1.70;;
26034;SDS011;13809;48.632;11.576;2022-07-19T09:24:19;1.83;;;1.73;;
26034;SDS011;13809;48.632;11.576;2022-07-19T09:29:24;3.03;;;1.63;;
26034;SDS011;13809;48.632;11.576;2022-07-19T09:34:29;1.80;;;1.70;;
26034;SDS011;13809;48.632;11.576;2022-07-19T09:39:33;1.77;;;1.67;;
26034;SDS011;13809;48.632;11.576;2022-07-19T09:44:38;4.20;;;2.00;;
26034;SDS011;13809;48.632;11.576;2022-07-19T09:49:41;1.87;;;1.77;;
26034;SDS011;13809;48.632;11.576;2022-07-19T09:54:44;2.80;;;1.90;;
26034;SDS011;13809;48.632;11.576;2022-07-19T09:59:50;2.00;;;1.80;;
26034;SDS011;13809;48.632;11.576;2022-07-19T10:04:55;2.67;;;1.80;;
26034;SDS011;13809;48.632;11.576;2022-07-19T10:10:00;2.00;;;1.80;;
26034;SDS011;13809;48.632;11.576;2022-07-19T10:15:06;1.87;;;1.77;;
26034;SDS011;13809;48.632;11.576;2022-07-19T10:20:14;2.20;;;1.90;;
26034;SDS011;13809;48.632;11.576;2022-07-19T10:25:18;3.07;;;2.03;;
26034;SDS011;13809;48.632;11.576;2022-07-19T10:30:24;1.80;;;1.70;;
26034;SDS011;13809;48.632;11.576;2022-07-19T10:35:29;2.00;;;1.90;;
26034;SDS011;13809;48.632;11.576;2022-07-19T10:40:36;2.10;;;2.00;;
26034;SDS011;13809;48.632;11.576;2022-07-19T10:45:43;1.97;;;1.87;;
26034;SDS011;13809;48.632;11.576;2022-07-19T10:51:11;4.33;;;2.40;;
26034;SDS011;13809;48.632;11.576;2022-07-19T10:56:18;1.97;;;1.87;;
26034;SDS011;13809;48.632;11.576;2022-07-19T11:01:23;2.60;;;2.07;;
26034;SDS011;13809;48.632;11.576;2022-07-19T11:06:29;2.30;;;2.13;;
26034;SDS011;13809;48.632;11.576;2022-07-19T11:11:33;2.30;;;1.83;;
26034;SDS011;13809;48.632;11.576;2022-07-19T11:16:37;2.40;;;2.20;;
26034;SDS011;13809;48.632;11.576;2022-07-19T11:21:43;2.10;;;1.90;;
26034;SDS011;13809;48.632;11.576;2022-07-19T11:26:46;2.40;;;2.20;;
26034;SDS011;13809;48.632;11.576;2022-07-19T11:31:52;2.20;;;2.07;;
26034;SDS011;13809;48.632;11.576;2022-07-19T11:36:58;2.30;;;2.20;;
26034;SDS011;13809;48.632;11.576;2022-07-19T11:42:01;2.10;;;2.00;;
26034;SDS011;13809;48.632;11.576;2022-07-19T11:47:06;2.50;;;2.30;;
26034;SDS011;13809;48.632;11.576;2022-07-19T11:52:09;2.43;;;2.30;;
26034;SDS011;13809;48.632;11.576;2022-07-19T11:57:21;2.60;;;2.40;;
26034;SDS011;13809;48.632;11.576;2022-07-19T12:02:26;2.50;;;2.40;;
26034;SDS011;13809;48.632;11.576;2022-07-19T12:07:30;2.53;;;2.00;;
26034;SDS011;13809;48.632;11.576;2022-07-19T12:12:39;2.63;;;2.43;;
26034;SDS011;13809;48.632;11.576;2022-07-19T12:17:55;5.37;;;2.37;;
26034;SDS011;13809;48.632;11.576;2022-07-19T12:23:09;2.67;;;2.47;;
26034;SDS011;13809;48.632;11.576;2022-07-19T12:28:14;2.13;;;2.00;;
26034;SDS011;13809;48.632;11.576;2022-07-19T12:33:18;2.60;;;2.40;;
26034;SDS011;13809;48.632;11.576;2022-07-19T12:38:27;2.60;;;2.40;;
26034;SDS011;13809;48.632;11.576;2022-07-19T12:43:33;2.43;;;2.27;;
26034;SDS011;13809;48.632;11.576;2022-07-19T12:48:38;2.27;;;2.10;;
26034;SDS011;13809;48.632;11.576;2022-07-19T12:53:41;2.23;;;2.13;;
26034;SDS011;13809;48.632;11.576;2022-07-19T12:58:45;2.17;;;2.07;;
26034;SDS011;13809;48.632;11.576;2022-07-19T13:04:07;2.50;;;2.30;;
26034;SDS011;13809;48.632;11.576;2022-07-19T13:09:10;3.90;;;2.50;;
26034;SDS011;13809;48.632;11.576;2022-07-19T13:14:13;2.83;;;2.30;;
26034;SDS011;13809;48.632;11.576;2022-07-19T13:19:18;2.33;;;2.13;;
26034;SDS011;13809;48.632;11.576;2022-07-19T13:24:21;2.40;;;2.20;;
26034;SDS011;13809;48.632;11.576;2022-07-19T13:29:45;2.07;;;1.90;;
26034;SDS011;13809;48.632;11.576;2022-07-19T13:34:49;2.60;;;2.10;;
26034;SDS011;13809;48.632;11.576;2022-07-19T13:39:53;2.50;;;2.30;;
26034;SDS011;13809;48.632;11.576;2022-07-19T13:44:56;3.20;;;2.20;;
26034;SDS011;13809;48.632;11.576;2022-07-19T13:50:00;2.40;;;2.20;;
26034;SDS011;13809;48.632;11.576;2022-07-19T13:55:04;2.30;;;2.17;;
26034;SDS011;13809;48.632;11.576;2022-07-19T14:00:08;2.33;;;2.13;;
26034;SDS011;13809;48.632;11.576;2022-07-19T14:05:14;3.40;;;2.20;;
26034;SDS011;13809;48.632;11.576;2022-07-19T14:10:17;2.50;;;2.30;;
26034;SDS011;13809;48.632;11.576;2022-07-19T14:15:21;1.90;;;1.80;;
26034;SDS011;13809;48.632;11.576;2022-07-19T14:20:26;2.40;;;2.20;;
26034;SDS011;13809;48.632;11.576;2022-07-19T14:25:29;2.30;;;2.20;;
26034;SDS011;13809;48.632;11.576;2022-07-19T14:30:32;2.70;;;2.50;;
26034;SDS011;13809;48.632;11.576;2022-07-19T14:35:37;2.20;;;2.00;;
26034;SDS011;13809;48.632;11.576;2022-07-19T14:40:40;2.30;;;2.20;;
26034;SDS011;13809;48.632;11.576;2022-07-19T14:45:43;4.40;;;2.30;;
26034;SDS011;13809;48.632;11.576;2022-07-19T14:50:48;4.37;;;2.27;;
26034;SDS011;13809;48.632;11.576;2022-07-19T14:55:52;2.50;;;2.30;;
26034;SDS011;13809;48.632;11.576;2022-07-19T15:00:55;3.97;;;2.40;;
26034;SDS011;13809;48.632;11.576;2022-07-19T15:06:00;2.83;;;2.43;;
26034;SDS011;13809;48.632;11.576;2022-07-19T15:11:04;3.03;;;2.33;;
26034;SDS011;13809;48.632;11.576;2022-07-19T15:16:07;2.53;;;2.33;;
26034;SDS011;13809;48.632;11.576;2022-07-19T15:21:12;3.10;;;2.47;;
26034;SDS011;13809;48.632;11.576;2022-07-19T15:26:15;2.70;;;2.50;;
26034;SDS011;13809;48.632;11.576;2022-07-19T15:31:18;3.10;;;2.60;;
26034;SDS011;13809;48.632;11.576;2022-07-19T15:36:23;4.13;;;2.70;;
26034;SDS011;13809;48.632;11.576;2022-07-19T15:41:27;3.20;;;2.53;;
26034;SDS011;13809;48.632;11.576;2022-07-19T15:46:30;4.03;;;2.57;;
26034;SDS011;13809;48.632;11.576;2022-07-19T15:51:44;2.57;;;2.37;;
26034;SDS011;13809;48.632;11.576;2022-07-19T15:56:47;2.53;;;2.40;;
26034;SDS011;13809;48.632;11.576;2022-07-19T16:01:50;3.70;;;2.63;;
26034;SDS011;13809;48.632;11.576;2022-07-19T16:06:55;2.63;;;2.43;;
26034;SDS011;13809;48.632;11.576;2022-07-19T16:11:58;2.90;;;2.70;;
26034;SDS011;13809;48.632;11.576;2022-07-19T16:17:01;3.17;;;2.87;;
26034;SDS011;13809;48.632;11.576;2022-07-19T16:22:06;2.80;;;2.60;;
26034;SDS011;13809;48.632;11.576;2022-07-19T16:27:09;4.67;;;2.90;;
26034;SDS011;13809;48.632;11.576;2022-07-19T16:32:23;2.77;;;2.50;;
26034;SDS011;13809;48.632;11.576;2022-07-19T16:37:28;2.73;;;2.53;;
26034;SDS011;13809;48.632;11.576;2022-07-19T16:42:31;2.90;;;2.70;;
26034;SDS011;13809;48.632;11.576;2022-07-19T16:47:54;3.00;;;2.70;;
26034;SDS011;13809;48.632;11.576;2022-07-19T16:52:59;2.60;;;2.40;;
26034;SDS011;13809;48.632;11.576;2022-07-19T16:58:03;3.23;;;2.93;;
26034;SDS011;13809;48.632;11.576;2022-07-19T17:03:07;3.87;;;3.20;;
26034;SDS011;13809;48.632;11.576;2022-07-19T17:08:12;3.03;;;2.83;;
26034;SDS011;13809;48.632;11.576;2022-07-19T17:13:15;3.37;;;2.87;;
26034;SDS011;13809;48.632;11.576;2022-07-19T17:18:18;3.47;;;2.80;;
26034;SDS011;13809;48.632;11.576;2022-07-19T17:23:23;2.90;;;2.70;;
26034;SDS011;13809;48.632;11.576;2022-07-19T17:28:26;2.90;;;2.70;;
26034;SDS011;13809;48.632;11.576;2022-07-19T17:33:29;2.53;;;2.33;;
26034;SDS011;13809;48.632;11.576;2022-07-19T17:38:34;2.77;;;2.57;;
26034;SDS011;13809;48.632;11.576;2022-07-19T17:43:38;3.53;;;2.50;;
26034;SDS011;13809;48.632;11.576;2022-07-19T17:48:41;2.87;;;2.57;;
26034;SDS011;13809;48.632;11.576;2022-07-19T17:53:50;2.73;;;2.53;;
26034;SDS011;13809;48.632;11.576;2022-07-19T17:58:54;2.63;;;2.43;;
26034;SDS011;13809;48.632;11.576;2022-07-19T18:03:57;2.90;;;2.70;;
26034;SDS011;13809;48.632;11.576;2022-07-19T18:09:02;3.07;;;2.60;;
26034;SDS011;13809;48.632;11.576;2022-07-19T18:14:06;2.67;;;2.47;;
26034;SDS011;13809;48.632;11.576;2022-07-19T18:19:10;2.63;;;2.43;;
26034;SDS011;13809;48.632;11.576;2022-07-19T18:24:15;2.27;;;2.17;;
26034;SDS011;13809;48.632;11.576;2022-07-19T18:29:18;2.73;;;2.20;;
26034;SDS011;13809;48.632;11.576;2022-07-19T18:34:22;2.50;;;2.30;;
26034;SDS011;13809;48.632;11.576;2022-07-19T18:39:27;2.43;;;2.23;;
26034;SDS011;13809;48.632;11.576;2022-07-19T18:44:31;2.27;;;2.17;;
26034;SDS011;13809;48.632;11.576;2022-07-19T18:49:35;2.50;;;2.30;;
26034;SDS011;13809;48.632;11.576;2022-07-19T18:54:41;2.40;;;2.20;;
26034;SDS011;13809;48.632;11.576;2022-07-19T18:59:44;3.13;;;2.47;;
26034;SDS011;13809;48.632;11.576;2022-07-19T19:04:47;2.77;;;2.50;;
26034;SDS011;13809;48.632;11.576;2022-07-19T19:09:55;3.03;;;2.60;;
26034;SDS011;13809;48.632;11.576;2022-07-19T19:14:58;3.57;;;2.93;;
26034;SDS011;13809;48.632;11.576;2022-07-19T19:20:02;3.67;;;2.50;;
26034;SDS011;13809;48.632;11.576;2022-07-19T19:25:09;2.90;;;2.60;;
26034;SDS011;13809;48.632;11.576;2022-07-19T19:30:13;2.73;;;2.50;;
26034;SDS011;13809;48.632;11.576;2022-07-19T19:35:18;3.03;;;2.40;;
26034;SDS011;13809;48.632;11.576;2022-07-19T19:40:23;3.73;;;2.50;;
26034;SDS011;13809;48.632;11.576;2022-07-19T19:45:26;3.67;;;2.77;;
26034;SDS011;13809;48.632;11.576;2022-07-19T19:50:30;2.87;;;2.63;;
26034;SDS011;13809;48.632;11.576;2022-07-19T19:55:35;3.03;;;2.83;;
26034;SDS011;13809;48.632;11.576;2022-07-19T20:00:39;3.93;;;2.67;;
26034;SDS011;13809;48.632;11.576;2022-07-19T20:05:42;3.77;;;2.87;;
26034;SDS011;13809;48.632;11.576;2022-07-19T20:10:47;3.03;;;2.73;;
26034;SDS011;13809;48.632;11.576;2022-07-19T20:15:54;4.83;;;3.17;;
26034;SDS011;13809;48.632;11.576;2022-07-19T20:21:13;4.70;;;3.50;;
26034;SDS011;13809;48.632;11.576;2022-07-19T20:26:18;6.03;;;3.10;;
26034;SDS011;13809;48.632;11.576;2022-07-19T20:31:21;3.13;;;2.83;;
26034;SDS011;13809;48.632;11.576;2022-07-19T20:36:24;2.77;;;2.50;;
26034;SDS011;13809;48.632;11.576;2022-07-19T20:41:29;3.20;;;2.77;;
26034;SDS011;13809;48.632;11.576;2022-07-19T20:46:33;3.23;;;2.60;;
26034;SDS011;13809;48.632;11.576;2022-07-19T20:51:36;3.60;;;2.60;;
26034;SDS011;13809;48.632;11.576;2022-07-19T20:56:41;3.57;;;2.63;;
26034;SDS011;13809;48.632;11.576;2022-07-19T21:01:44;3.37;;;2.70;;
26034;SDS011;13809;48.632;11.576;2022-07-19T21:06:47;3.40;;;2.50;;
26034;SDS011;13809;48.632;11.576;2022-07-19T21:11:52;4.60;;;3.00;;
26034;SDS011;13809;48.632;11.576;2022-07-19T21:16:55;4.63;;;2.70;;
26034;SDS011;13809;48.632;11.576;2022-07-19T21:21:58;4.97;;;2.80;;
26034;SDS011;13809;48.632;11.576;2022-07-19T21:27:03;5.03;;;2.70;;
26034;SDS011;13809;48.632;11.576;2022-07-19T21:32:06;5.23;;;2.70;;
26034;SDS011;13809;48.632;11.576;2022-07-19T21:37:09;7.60;;;2.80;;
26034;SDS011;13809;48.632;11.576;2022-07-19T21:42:14;3.67;;;2.47;;
26034;SDS011;13809;48.632;11.576;2022-07-19T21:47:17;4.53;;;2.90;;
26034;SDS011;13809;48.632;11.576;2022-07-19T21:52:21;4.73;;;2.80;;
26034;SDS011;13809;48.632;11.576;2022-07-19T21:57:26;3.43;;;2.60;;
26034;SDS011;13809;48.632;11.576;2022-07-19T22:02:29;3.30;;;2.60;;
26034;SDS011;13809;48.632;11.576;2022-07-19T22:07:32;6.23;;;2.53;;
26034;SDS011;13809;48.632;11.576;2022-07-19T22:12:37;6.27;;;2.77;;
26034;SDS011;13809;48.632;11.576;2022-07-19T22:17:40;5.00;;;2.57;;
26034;SDS011;13809;48.632;11.576;2022-07-19T22:22:43;3.77;;;2.70;;
26034;SDS011;13809;48.632;11.576;2022-07-19T22:27:48;5.07;;;2.70;;
26034;SDS011;13809;48.632;11.576;2022-07-19T22:32:51;3.00;;;2.60;;
26034;SDS011;13809;48.632;11.576;2022-07-19T22:37:54;4.70;;;2.77;;
26034;SDS011;13809;48.632;11.576;2022-07-19T22:42:59;3.00;;;2.43;;
26034;SDS011;13809;48.632;11.576;2022-07-19T22:48:02;3.17;;;2.70;;
26034;SDS011;13809;48.632;11.576;2022-07-19T22:53:06;3.30;;;2.20;;
26034;SDS011;13809;48.632;11.576;2022-07-19T22:58:13;2.70;;;2.23;;
26034;SDS011;13809;48.632;11.576;2022-07-19T23:03:16;2.47;;;2.20;;
26034;SDS011;13809;48.632;11.576;2022-07-19T23:08:20;2.77;;;2.40;;
26034;SDS011;13809;48.632;11.576;2022-07-19T23:13:25;3.17;;;2.70;;
26034;SDS011;13809;48.632;11.576;2022-07-19T23:18:28;2.60;;;2.40;;
26034;SDS011;13809;48.632;11.576;2022-07-19T23:23:31;2.97;;;2.37;;
26034;SDS011;13809;48.632;11.576;2022-07-19T23:28:36;3.10;;;2.20;;
26034;SDS011;13809;48.632;11.576;2022-07-19T23:33:39;3.43;;;2.40;;
26034;SDS011;13809;48.632;11.576;2022-07-19T23:38:42;2.63;;;2.43;;
26034;SDS011;13809;48.632;11.576;2022-07-19T23:43:47;4.50;;;2.70;;
26034;SDS011;13809;48.632;11.576;2022-07-19T23:48:51;2.77;;;2.53;;
26034;SDS011;13809;48.632;11.576;2022-07-19T23:53:54;3.13;;;2.17;;
26034;SDS011;13809;48.632;11.576;2022-07-19T23:58:59;2.67;;;2.47;;
